• Join FlightAware (Why Join?)
  • Login
  • US Flag 
08:52PM EDT


 

Airport Tracker/Info


-or-


 

Live Flight TrackerFlight Track Log ✈ NSH577 ✈ 28-Apr-2013 ✈ KSDL - KSMO

Flight Track Log - Related Links

Times and Time Zones

All times are in EDT time to prevent confusion due to time zone crossing. See the NSH577 flight status page for this flight to view local times or setup timezone preferences in your user account.

Time Position Orientation Groundspeed Altitude Reporting Facility
EDT Latitude Longitude Course Direction KTS MPH feet Rate Location/Type
02:23PM 33.6167 -111.9167 284° West 168 193 2,500  Level Phoenix TRACON
02:24PM 33.6333 -112.0000 284° West 244 281 5,400 2,280 Climbing Phoenix TRACON
02:25PM 33.6583 -112.0533 299° West 264 304 7,100 2,460 Climbing Albuquerque Center
02:26PM 33.7061 -112.1303 307° West 290 334 9,900 2,400 Climbing Albuquerque Center
02:27PM 33.7517 -112.2228 301° West 321 369 12,100 2,220 Climbing Albuquerque Center
02:28PM 33.7842 -112.3606 286° West 358 412 14,600 2,160 Climbing Albuquerque Center
02:29PM 33.8183 -112.4803 289° West 375 432 16,600 1,740 Climbing Albuquerque Center
02:30PM 33.8508 -112.6078 287° West 396 456 18,300 1,800 Climbing Albuquerque Center
02:31PM 33.8844 -112.7378 287° West 404 465 20,400 1,980 Climbing Albuquerque Center
02:32PM 33.9197 -112.8694 288° West 411 473 22,500 1,860 Climbing Albuquerque Center
02:33PM 33.9564 -113.0069 288° West 425 489 24,300 1,920 Climbing Albuquerque Center
02:34PM 33.9997 -113.1794 287° West 443 510 26,500 1,920 Climbing Albuquerque Center
02:35PM 34.0367 -113.3281 287° West 453 521 28,300 1,320 Climbing Albuquerque Center
02:36PM 34.0750 -113.4839 287° West 470 541 29,300 780 Climbing Albuquerque Center
02:37PM 34.1164 -113.6478 287° West 492 566 30,000 300 Climbing Albuquerque Center
02:38PM 34.1617 -113.8192 288° West 510 587 30,000  Level Albuquerque Center
02:39PM 34.2039 -113.9833 287° West 513 590 30,000  Level Albuquerque Center
02:40PM 34.2456 -114.1481 287° West 513 590 30,000  Level Albuquerque Center
02:41PM 34.2942 -114.3472 287° West 515 593 30,000  Level Albuquerque Center
02:42PM 34.3336 -114.5150 286° West 517 595 30,000  Level Albuquerque Center
02:43PM 34.3767 -114.6722 288° West 511 588 30,000  Level Los Angeles Center
02:44PM 34.4161 -114.8367 286° West 511 588 30,000  Level Los Angeles Center
02:45PM 34.4553 -114.9997 286° West 508 585 30,000  Level Los Angeles Center
02:46PM 34.4947 -115.1633 286° West 507 583 30,000  Level Los Angeles Center
02:47PM 34.5353 -115.3331 286° West 521 600 30,000 -60 Level Los Angeles Center
02:48PM 34.5756 -115.5033 286° West 526 605 29,900 -720 Descending Los Angeles Center
02:50PM 34.6383 -115.6744 294° West 508 585 28,600 -1,320 Descending Los Angeles Center
02:51PM 34.6933 -115.8272 294° West 498 573 27,200 -1,260 Descending Los Angeles Center
02:52PM 34.7489 -115.9742 295° West 486 559 26,000 -1,080 Descending Los Angeles Center
02:53PM 34.7936 -116.1550 287° West 472 543 25,000 -1,200 Descending Los Angeles Center
02:54PM 34.7969 -116.3156 271° West 478 550 23,600 -1,320 Descending Los Angeles Center
02:55PM 34.7958 -116.4753 270° West 474 545 22,300 -1,200 Descending Los Angeles Center
02:56PM 34.7808 -116.6267 263° West 456 525 21,200 -1,020 Descending Los Angeles Center
02:57PM 34.7667 -116.7739 263° West 441 507 20,300 -600 Descending Los Angeles Center
02:58PM 34.7517 -116.9217 263° West 440 506 20,000 -420 Descending Los Angeles Center
02:59PM 34.7339 -117.1008 263° West 445 512 19,500 -1,140 Descending Los Angeles Center
03:00PM 34.7178 -117.2486 262° West 441 507 17,700 -1,560 Descending Los Angeles Center
03:01PM 34.7019 -117.3947 263° West 437 503 16,300 -1,080 Descending Los Angeles Center
03:02PM 34.6869 -117.5353 263° West 425 489 15,500 -600 Descending Los Angeles Center
03:03PM 34.6761 -117.6494 263° West 358 412 15,100 -300 Descending Los Angeles Center
03:04PM 34.6644 -117.7569 263° West 325 374 15,000 -540 Descending Los Angeles Center
03:05PM 34.6492 -117.8661 260° West 329 379 14,100 -1,500 Descending Los Angeles Center
03:06PM 34.6067 -117.9842 246° West 318 366 12,000 -1,680 Descending Los Angeles Center
03:07PM 34.5744 -118.0789 248° West 305 351 10,700 -1,440 Descending Los Angeles Center
03:08PM 34.5439 -118.1650 247° West 291 335 9,000 -1,320 Descending Los Angeles Center
03:09PM 34.5125 -118.2542 247° West 286 329 8,000 -480 Descending Los Angeles Center
03:10PM 34.4497 -118.3403 229° Southwest 291 335 8,100 -180 Climbing Los Angeles Center
03:11PM 34.3722 -118.3603 192° South 280 322 7,700 -780 Descending Los Angeles Center
03:12PM 34.2981 -118.3644 183° South 272 313 6,600 -840 Descending Los Angeles Center
03:13PM 34.2350 -118.3256 153° Southeast 259 298 6,000 -540 Descending Los Angeles Center
03:14PM 34.1778 -118.2889 152° Southeast 242 278 5,500 -1,080 Descending Los Angeles Center
03:15PM 34.1244 -118.3122 200° South 209 241 3,800 -1,440 Descending Los Angeles Center
03:16PM 34.0839 -118.3611 225° Southwest 180 207 2,600 -1,140 Descending Los Angeles Center
03:17PM 34.0556 -118.4006 229° Southwest 167 192 1,500 -840 Descending Los Angeles Center
03:18PM 34.0325 -118.4331 229° Southwest 148 170 900 -540 Descending Los Angeles Center
03:20PM 34.0111 -118.4600 226° Southwest 140 161 400 -540 Descending Los Angeles Center
03:22PM 34.0000 -118.4500 244° Southwest  Level FlightAware Approximate